sensor_id;sensor_type;location;lat;lon;timestamp;pressure;altitude;pressure_sealevel;temperature;humidity
55538;BME280;41383;51.418;7.286;2023-05-15T00:00:55;99639.53;;;14.65;70.10
55538;BME280;41383;51.418;7.286;2023-05-15T00:03:20;99638.94;;;14.68;69.79
55538;BME280;41383;51.418;7.286;2023-05-15T00:05:46;99637.28;;;14.67;70.13
55538;BME280;41383;51.418;7.286;2023-05-15T00:08:11;99642.78;;;14.67;70.31
55538;BME280;41383;51.418;7.286;2023-05-15T00:10:36;99639.81;;;14.63;70.46
55538;BME280;41383;51.418;7.286;2023-05-15T00:13:02;99637.03;;;14.68;70.65
55538;BME280;41383;51.418;7.286;2023-05-15T00:15:27;99628.28;;;14.86;69.59
55538;BME280;41383;51.418;7.286;2023-05-15T00:17:52;99628.13;;;14.96;69.10
55538;BME280;41383;51.418;7.286;2023-05-15T00:20:18;99634.81;;;14.90;69.44
55538;BME280;41383;51.418;7.286;2023-05-15T00:22:43;99632.72;;;14.81;69.75
55538;BME280;41383;51.418;7.286;2023-05-15T00:25:08;99633.78;;;14.86;69.79
55538;BME280;41383;51.418;7.286;2023-05-15T00:27:34;99631.63;;;14.82;69.94
55538;BME280;41383;51.418;7.286;2023-05-15T00:30:00;99627.09;;;14.92;69.60
55538;BME280;41383;51.418;7.286;2023-05-15T00:32:25;99627.31;;;14.96;69.35
55538;BME280;41383;51.418;7.286;2023-05-15T00:34:50;99627.00;;;14.97;69.37
55538;BME280;41383;51.418;7.286;2023-05-15T00:37:15;99626.50;;;14.95;69.47
55538;BME280;41383;51.418;7.286;2023-05-15T00:39:41;99628.50;;;14.89;69.89
55538;BME280;41383;51.418;7.286;2023-05-15T00:42:06;99627.47;;;14.85;69.78
55538;BME280;41383;51.418;7.286;2023-05-15T00:44:33;99622.28;;;14.84;70.25
55538;BME280;41383;51.418;7.286;2023-05-15T00:47:00;99621.63;;;14.92;69.76
55538;BME280;41383;51.418;7.286;2023-05-15T00:49:27;99619.59;;;14.98;69.61
55538;BME280;41383;51.418;7.286;2023-05-15T00:51:55;99620.34;;;15.03;69.38
55538;BME280;41383;51.418;7.286;2023-05-15T00:54:20;99611.53;;;15.07;69.15
55538;BME280;41383;51.418;7.286;2023-05-15T00:56:46;99623.31;;;14.88;69.63
55538;BME280;41383;51.418;7.286;2023-05-15T00:59:12;99617.84;;;14.88;69.96
55538;BME280;41383;51.418;7.286;2023-05-15T01:01:38;99616.22;;;14.87;70.03
55538;BME280;41383;51.418;7.286;2023-05-15T01:04:03;99614.25;;;14.87;69.94
55538;BME280;41383;51.418;7.286;2023-05-15T01:06:29;99605.16;;;14.92;70.04
55538;BME280;41383;51.418;7.286;2023-05-15T01:08:56;99597.78;;;14.87;69.84
55538;BME280;41383;51.418;7.286;2023-05-15T01:11:26;99597.13;;;14.76;70.63
55538;BME280;41383;51.418;7.286;2023-05-15T01:13:51;99591.03;;;14.79;70.27
55538;BME280;41383;51.418;7.286;2023-05-15T01:16:17;99594.44;;;14.71;70.39
55538;BME280;41383;51.418;7.286;2023-05-15T01:18:45;99599.03;;;14.56;70.99
55538;BME280;41383;51.418;7.286;2023-05-15T01:30:08;99592.06;;;14.45;72.57
55538;BME280;41383;51.418;7.286;2023-05-15T01:37:44;99594.38;;;14.57;73.12
55538;BME280;41383;51.418;7.286;2023-05-15T01:40:15;99593.34;;;14.72;72.50
55538;BME280;41383;51.418;7.286;2023-05-15T01:42:50;99587.13;;;14.66;72.62
55538;BME280;41383;51.418;7.286;2023-05-15T01:45:15;99587.84;;;14.53;72.87
55538;BME280;41383;51.418;7.286;2023-05-15T01:47:43;99587.63;;;14.49;73.67
55538;BME280;41383;51.418;7.286;2023-05-15T01:50:13;99584.34;;;14.47;73.67
55538;BME280;41383;51.418;7.286;2023-05-15T01:52:41;99580.66;;;14.38;74.23
55538;BME280;41383;51.418;7.286;2023-05-15T01:55:08;99583.31;;;14.43;74.42
55538;BME280;41383;51.418;7.286;2023-05-15T01:57:34;99594.06;;;14.39;74.03
55538;BME280;41383;51.418;7.286;2023-05-15T02:00:01;99585.53;;;14.41;74.58
55538;BME280;41383;51.418;7.286;2023-05-15T02:02:28;99587.63;;;14.49;74.28
55538;BME280;41383;51.418;7.286;2023-05-15T02:04:54;99595.97;;;14.39;74.28
55538;BME280;41383;51.418;7.286;2023-05-15T02:07:20;99599.97;;;14.27;74.66
55538;BME280;41383;51.418;7.286;2023-05-15T02:09:47;99598.94;;;14.23;74.71
55538;BME280;41383;51.418;7.286;2023-05-15T02:12:12;99595.72;;;14.16;74.39
55538;BME280;41383;51.418;7.286;2023-05-15T02:14:39;99586.06;;;13.99;75.03
55538;BME280;41383;51.418;7.286;2023-05-15T02:17:05;99594.31;;;13.94;75.18
55538;BME280;41383;51.418;7.286;2023-05-15T02:19:30;99589.78;;;13.84;75.06
55538;BME280;41383;51.418;7.286;2023-05-15T02:21:55;99579.16;;;13.77;75.78
55538;BME280;41383;51.418;7.286;2023-05-15T02:24:21;99580.63;;;13.69;77.12
55538;BME280;41383;51.418;7.286;2023-05-15T02:26:56;99578.13;;;13.73;75.91
55538;BME280;41383;51.418;7.286;2023-05-15T02:34:38;99591.34;;;13.65;77.72
55538;BME280;41383;51.418;7.286;2023-05-15T02:37:12;99586.41;;;13.68;78.37
55538;BME280;41383;51.418;7.286;2023-05-15T02:39:39;99587.22;;;13.68;77.98
55538;BME280;41383;51.418;7.286;2023-05-15T02:42:06;99594.63;;;13.68;78.27
55538;BME280;41383;51.418;7.286;2023-05-15T02:44:34;99594.31;;;13.69;77.98
55538;BME280;41383;51.418;7.286;2023-05-15T02:47:00;99588.28;;;13.72;78.50
55538;BME280;41383;51.418;7.286;2023-05-15T02:49:26;99582.91;;;13.86;78.60
55538;BME280;41383;51.418;7.286;2023-05-15T02:51:51;99592.13;;;13.96;77.96
55538;BME280;41383;51.418;7.286;2023-05-15T02:54:17;99591.06;;;13.92;77.88
55538;BME280;41383;51.418;7.286;2023-05-15T02:56:42;99585.66;;;13.86;78.31
55538;BME280;41383;51.418;7.286;2023-05-15T02:59:07;99585.59;;;13.92;78.51
55538;BME280;41383;51.418;7.286;2023-05-15T03:01:33;99589.44;;;13.91;79.00
55538;BME280;41383;51.418;7.286;2023-05-15T03:03:58;99588.28;;;13.97;79.52
55538;BME280;41383;51.418;7.286;2023-05-15T03:06:23;99596.66;;;14.06;80.00
55538;BME280;41383;51.418;7.286;2023-05-15T03:08:48;99583.81;;;14.26;80.14
55538;BME280;41383;51.418;7.286;2023-05-15T03:11:13;99581.97;;;14.40;79.88
55538;BME280;41383;51.418;7.286;2023-05-15T03:13:39;99584.72;;;14.40;80.06
55538;BME280;41383;51.418;7.286;2023-05-15T03:16:04;99594.50;;;14.46;80.27
55538;BME280;41383;51.418;7.286;2023-05-15T03:18:30;99592.06;;;14.45;80.03
55538;BME280;41383;51.418;7.286;2023-05-15T03:20:55;99592.16;;;14.40;79.43
55538;BME280;41383;51.418;7.286;2023-05-15T03:23:20;99591.16;;;14.30;78.92
55538;BME280;41383;51.418;7.286;2023-05-15T03:25:45;99589.75;;;14.33;78.71
55538;BME280;41383;51.418;7.286;2023-05-15T03:28:11;99592.50;;;14.33;78.58
55538;BME280;41383;51.418;7.286;2023-05-15T03:30:36;99594.28;;;14.43;78.29
55538;BME280;41383;51.418;7.286;2023-05-15T03:33:02;99591.63;;;14.38;78.26
55538;BME280;41383;51.418;7.286;2023-05-15T03:35:28;99590.78;;;14.37;78.31
55538;BME280;41383;51.418;7.286;2023-05-15T03:37:54;99583.16;;;14.34;78.27
55538;BME280;41383;51.418;7.286;2023-05-15T03:40:19;99596.28;;;14.37;78.12
55538;BME280;41383;51.418;7.286;2023-05-15T03:42:44;99597.50;;;14.50;78.25
55538;BME280;41383;51.418;7.286;2023-05-15T03:45:09;99600.50;;;14.48;78.40
55538;BME280;41383;51.418;7.286;2023-05-15T03:47:35;99593.72;;;14.46;78.87
55538;BME280;41383;51.418;7.286;2023-05-15T03:50:00;99599.09;;;14.51;79.75
55538;BME280;41383;51.418;7.286;2023-05-15T03:52:26;99595.84;;;14.49;79.72
55538;BME280;41383;51.418;7.286;2023-05-15T03:54:51;99603.13;;;14.59;79.97
55538;BME280;41383;51.418;7.286;2023-05-15T03:57:16;99605.56;;;14.61;79.80
55538;BME280;41383;51.418;7.286;2023-05-15T03:59:42;99600.06;;;14.61;80.13
55538;BME280;41383;51.418;7.286;2023-05-15T04:02:07;99595.25;;;14.52;80.50
55538;BME280;41383;51.418;7.286;2023-05-15T04:04:32;99599.41;;;14.50;80.37
55538;BME280;41383;51.418;7.286;2023-05-15T04:06:58;99596.22;;;14.62;79.68
55538;BME280;41383;51.418;7.286;2023-05-15T04:09:23;99594.81;;;14.64;79.83
55538;BME280;41383;51.418;7.286;2023-05-15T04:11:48;99606.69;;;14.59;80.19
55538;BME280;41383;51.418;7.286;2023-05-15T04:14:13;99594.28;;;14.43;81.23
55538;BME280;41383;51.418;7.286;2023-05-15T04:16:39;99593.09;;;14.49;80.68
55538;BME280;41383;51.418;7.286;2023-05-15T04:19:04;99586.28;;;14.66;79.79
55538;BME280;41383;51.418;7.286;2023-05-15T04:21:30;99598.44;;;14.59;80.52
55538;BME280;41383;51.418;7.286;2023-05-15T04:23:55;99591.31;;;14.58;80.71
55538;BME280;41383;51.418;7.286;2023-05-15T04:26:20;99589.84;;;14.47;81.21
55538;BME280;41383;51.418;7.286;2023-05-15T04:28:46;99599.63;;;14.53;80.91
55538;BME280;41383;51.418;7.286;2023-05-15T04:31:11;99594.00;;;14.64;80.57
55538;BME280;41383;51.418;7.286;2023-05-15T04:33:37;99595.47;;;14.75;80.37
55538;BME280;41383;51.418;7.286;2023-05-15T04:36:04;99593.13;;;14.68;80.57
55538;BME280;41383;51.418;7.286;2023-05-15T04:38:30;99594.28;;;14.81;80.41
55538;BME280;41383;51.418;7.286;2023-05-15T04:40:55;99595.56;;;14.89;80.13
55538;BME280;41383;51.418;7.286;2023-05-15T04:43:20;99590.91;;;14.90;79.93
55538;BME280;41383;51.418;7.286;2023-05-15T04:45:45;99596.09;;;14.72;80.32
55538;BME280;41383;51.418;7.286;2023-05-15T04:48:11;99592.00;;;14.69;80.48
55538;BME280;41383;51.418;7.286;2023-05-15T04:50:36;99595.94;;;14.82;80.19
55538;BME280;41383;51.418;7.286;2023-05-15T04:53:01;99587.13;;;14.86;79.87
55538;BME280;41383;51.418;7.286;2023-05-15T04:55:27;99587.56;;;14.74;80.23
55538;BME280;41383;51.418;7.286;2023-05-15T04:57:52;99588.44;;;14.69;80.73
55538;BME280;41383;51.418;7.286;2023-05-15T05:00:18;99593.34;;;14.72;80.54
55538;BME280;41383;51.418;7.286;2023-05-15T05:02:43;99599.78;;;14.81;79.97
55538;BME280;41383;51.418;7.286;2023-05-15T05:05:08;99602.75;;;14.66;80.00
55538;BME280;41383;51.418;7.286;2023-05-15T05:07:34;99593.47;;;14.62;80.25
55538;BME280;41383;51.418;7.286;2023-05-15T05:10:00;99604.50;;;14.56;80.34
55538;BME280;41383;51.418;7.286;2023-05-15T05:12:25;99596.97;;;14.48;80.72
55538;BME280;41383;51.418;7.286;2023-05-15T05:14:50;99587.53;;;14.54;80.31
55538;BME280;41383;51.418;7.286;2023-05-15T05:17:15;99592.44;;;14.57;79.92
55538;BME280;41383;51.418;7.286;2023-05-15T05:19:41;99590.22;;;14.59;80.16
55538;BME280;41383;51.418;7.286;2023-05-15T05:22:06;99592.22;;;14.73;79.29
55538;BME280;41383;51.418;7.286;2023-05-15T05:24:33;99594.53;;;14.66;79.51
55538;BME280;41383;51.418;7.286;2023-05-15T05:27:02;99592.97;;;14.59;80.05
55538;BME280;41383;51.418;7.286;2023-05-15T05:29:28;99594.22;;;14.67;80.05
55538;BME280;41383;51.418;7.286;2023-05-15T05:31:54;99596.88;;;14.53;79.84
55538;BME280;41383;51.418;7.286;2023-05-15T05:34:19;99592.16;;;14.59;79.85
55538;BME280;41383;51.418;7.286;2023-05-15T05:36:45;99594.22;;;14.67;79.63
55538;BME280;41383;51.418;7.286;2023-05-15T05:39:10;99597.84;;;14.63;79.63
55538;BME280;41383;51.418;7.286;2023-05-15T05:41:36;99600.00;;;14.66;79.56
55538;BME280;41383;51.418;7.286;2023-05-15T05:44:01;99604.31;;;14.72;79.28
55538;BME280;41383;51.418;7.286;2023-05-15T05:46:26;99601.72;;;14.62;79.50
55538;BME280;41383;51.418;7.286;2023-05-15T05:48:52;99604.69;;;14.46;79.80
55538;BME280;41383;51.418;7.286;2023-05-15T05:51:17;99606.38;;;14.61;79.38
55538;BME280;41383;51.418;7.286;2023-05-15T05:53:42;99611.50;;;14.68;79.10
55538;BME280;41383;51.418;7.286;2023-05-15T05:56:08;99607.63;;;14.69;78.87
55538;BME280;41383;51.418;7.286;2023-05-15T05:58:33;99607.88;;;14.53;79.33
55538;BME280;41383;51.418;7.286;2023-05-15T06:00:58;99607.72;;;14.64;78.83
55538;BME280;41383;51.418;7.286;2023-05-15T06:03:25;99605.56;;;14.61;78.84
55538;BME280;41383;51.418;7.286;2023-05-15T06:05:50;99610.53;;;14.58;79.04
55538;BME280;41383;51.418;7.286;2023-05-15T06:08:16;99606.97;;;14.58;79.06
55538;BME280;41383;51.418;7.286;2023-05-15T06:10:42;99602.63;;;14.76;78.14
55538;BME280;41383;51.418;7.286;2023-05-15T06:13:07;99612.53;;;14.72;78.13
55538;BME280;41383;51.418;7.286;2023-05-15T06:15:33;99607.06;;;14.72;78.11
55538;BME280;41383;51.418;7.286;2023-05-15T06:17:58;99609.72;;;14.77;78.34
55538;BME280;41383;51.418;7.286;2023-05-15T06:20:23;99608.75;;;14.68;78.55
55538;BME280;41383;51.418;7.286;2023-05-15T06:22:49;99617.06;;;14.82;78.68
55538;BME280;41383;51.418;7.286;2023-05-15T06:25:14;99624.44;;;14.87;77.81
55538;BME280;41383;51.418;7.286;2023-05-15T06:27:40;99618.72;;;14.83;78.48
55538;BME280;41383;51.418;7.286;2023-05-15T06:30:07;99621.19;;;14.85;78.46
55538;BME280;41383;51.418;7.286;2023-05-15T06:32:32;99611.06;;;14.99;78.12
55538;BME280;41383;51.418;7.286;2023-05-15T06:34:57;99617.94;;;14.77;77.84
55538;BME280;41383;51.418;7.286;2023-05-15T06:37:23;99623.53;;;14.72;78.66
55538;BME280;41383;51.418;7.286;2023-05-15T06:39:48;99618.44;;;14.85;78.10
55538;BME280;41383;51.418;7.286;2023-05-15T06:42:14;99630.78;;;15.01;77.69
55538;BME280;41383;51.418;7.286;2023-05-15T06:44:39;99624.28;;;14.97;77.44
55538;BME280;41383;51.418;7.286;2023-05-15T06:47:04;99617.59;;;15.03;77.49
55538;BME280;41383;51.418;7.286;2023-05-15T06:49:30;99625.25;;;15.07;77.46
55538;BME280;41383;51.418;7.286;2023-05-15T06:51:55;99623.38;;;15.21;77.19
55538;BME280;41383;51.418;7.286;2023-05-15T06:54:20;99622.84;;;15.19;76.79
55538;BME280;41383;51.418;7.286;2023-05-15T06:56:46;99622.34;;;15.17;76.90
55538;BME280;41383;51.418;7.286;2023-05-15T06:59:11;99624.06;;;15.13;77.38
55538;BME280;41383;51.418;7.286;2023-05-15T07:01:36;99623.78;;;15.28;76.61
55538;BME280;41383;51.418;7.286;2023-05-15T07:04:02;99628.66;;;15.32;76.35
55538;BME280;41383;51.418;7.286;2023-05-15T07:06:27;99628.56;;;15.23;76.72
55538;BME280;41383;51.418;7.286;2023-05-15T07:08:53;99630.09;;;15.29;76.66
55538;BME280;41383;51.418;7.286;2023-05-15T07:11:18;99633.75;;;15.24;76.79
55538;BME280;41383;51.418;7.286;2023-05-15T07:13:43;99627.75;;;15.56;75.85
55538;BME280;41383;51.418;7.286;2023-05-15T07:16:09;99627.00;;;15.50;75.54
55538;BME280;41383;51.418;7.286;2023-05-15T07:18:35;99638.75;;;15.36;75.91
55538;BME280;41383;51.418;7.286;2023-05-15T07:21:00;99642.38;;;15.51;76.07
55538;BME280;41383;51.418;7.286;2023-05-15T07:23:26;99637.91;;;15.22;76.43
55538;BME280;41383;51.418;7.286;2023-05-15T07:25:53;99641.03;;;15.15;76.73
55538;BME280;41383;51.418;7.286;2023-05-15T07:28:18;99641.25;;;15.19;77.05
55538;BME280;41383;51.418;7.286;2023-05-15T07:30:44;99647.56;;;15.00;77.18
55538;BME280;41383;51.418;7.286;2023-05-15T07:33:09;99643.06;;;15.09;77.34
55538;BME280;41383;51.418;7.286;2023-05-15T07:35:34;99649.78;;;15.17;77.21
55538;BME280;41383;51.418;7.286;2023-05-15T07:38:00;99642.22;;;15.09;77.15
55538;BME280;41383;51.418;7.286;2023-05-15T07:40:25;99651.06;;;14.86;77.45
55538;BME280;41383;51.418;7.286;2023-05-15T07:42:50;99646.66;;;14.66;78.70
55538;BME280;41383;51.418;7.286;2023-05-15T07:45:16;99640.31;;;14.90;77.95
55538;BME280;41383;51.418;7.286;2023-05-15T07:47:45;99643.66;;;14.87;77.72
55538;BME280;41383;51.418;7.286;2023-05-15T07:50:11;99634.72;;;14.76;78.18
55538;BME280;41383;51.418;7.286;2023-05-15T07:52:36;99630.72;;;14.87;77.84
55538;BME280;41383;51.418;7.286;2023-05-15T07:55:02;99632.81;;;14.96;77.60
55538;BME280;41383;51.418;7.286;2023-05-15T07:57:28;99637.38;;;15.20;76.83
55538;BME280;41383;51.418;7.286;2023-05-15T07:59:53;99627.06;;;15.31;76.32
55538;BME280;41383;51.418;7.286;2023-05-15T08:02:19;99632.25;;;15.32;75.87
55538;BME280;41383;51.418;7.286;2023-05-15T08:04:44;99629.19;;;15.34;75.85
55538;BME280;41383;51.418;7.286;2023-05-15T08:07:12;99633.75;;;15.24;75.25
55538;BME280;41383;51.418;7.286;2023-05-15T08:09:38;99632.13;;;15.23;75.36
55538;BME280;41383;51.418;7.286;2023-05-15T08:12:16;99626.41;;;15.53;74.51
55538;BME280;41383;51.418;7.286;2023-05-15T08:14:44;99626.13;;;15.83;73.74
55538;BME280;41383;51.418;7.286;2023-05-15T08:17:09;99627.38;;;15.91;73.50
55538;BME280;41383;51.418;7.286;2023-05-15T08:19:35;99625.69;;;16.23;72.59
55538;BME280;41383;51.418;7.286;2023-05-15T08:22:00;99627.91;;;16.35;71.46
55538;BME280;41383;51.418;7.286;2023-05-15T08:24:25;99618.53;;;16.36;71.09
55538;BME280;41383;51.418;7.286;2023-05-15T08:26:50;99622.63;;;16.39;70.15
55538;BME280;41383;51.418;7.286;2023-05-15T08:29:16;99620.28;;;16.32;70.60
55538;BME280;41383;51.418;7.286;2023-05-15T08:31:41;99613.25;;;16.26;70.65
55538;BME280;41383;51.418;7.286;2023-05-15T08:34:07;99617.72;;;16.36;70.42
55538;BME280;41383;51.418;7.286;2023-05-15T08:36:32;99617.00;;;16.30;70.75
55538;BME280;41383;51.418;7.286;2023-05-15T08:38:57;99622.09;;;16.37;71.14
55538;BME280;41383;51.418;7.286;2023-05-15T08:41:32;99614.03;;;16.40;70.15
55538;BME280;41383;51.418;7.286;2023-05-15T08:44:02;99619.66;;;16.35;70.45
55538;BME280;41383;51.418;7.286;2023-05-15T08:46:28;99622.09;;;16.51;70.13
55538;BME280;41383;51.418;7.286;2023-05-15T08:48:55;99618.44;;;16.41;70.04
55538;BME280;41383;51.418;7.286;2023-05-15T08:51:22;99612.63;;;16.43;70.43
55538;BME280;41383;51.418;7.286;2023-05-15T08:53:48;99622.44;;;16.72;70.27
55538;BME280;41383;51.418;7.286;2023-05-15T08:56:14;99614.13;;;16.63;69.77
55538;BME280;41383;51.418;7.286;2023-05-15T08:58:40;99608.75;;;16.81;69.22
55538;BME280;41383;51.418;7.286;2023-05-15T09:01:06;99611.53;;;17.04;68.55
55538;BME280;41383;51.418;7.286;2023-05-15T09:03:32;99607.63;;;17.05;67.79
55538;BME280;41383;51.418;7.286;2023-05-15T09:05:57;99610.03;;;16.98;66.60
55538;BME280;41383;51.418;7.286;2023-05-15T09:08:23;99612.31;;;17.04;66.91
55538;BME280;41383;51.418;7.286;2023-05-15T09:10:51;99605.03;;;17.00;66.41
55538;BME280;41383;51.418;7.286;2023-05-15T09:13:16;99609.94;;;17.26;65.97
55538;BME280;41383;51.418;7.286;2023-05-15T09:15:42;99605.03;;;17.23;65.75
55538;BME280;41383;51.418;7.286;2023-05-15T09:18:07;99611.44;;;17.32;65.93
55538;BME280;41383;51.418;7.286;2023-05-15T09:20:34;99612.78;;;17.44;65.34
55538;BME280;41383;51.418;7.286;2023-05-15T09:23:02;99602.94;;;17.52;65.41
55538;BME280;41383;51.418;7.286;2023-05-15T09:25:41;99607.94;;;17.49;63.89
55538;BME280;41383;51.418;7.286;2023-05-15T09:28:09;99603.75;;;17.52;64.64
55538;BME280;41383;51.418;7.286;2023-05-15T09:30:41;99606.81;;;17.82;63.16
55538;BME280;41383;51.418;7.286;2023-05-15T09:33:07;99602.34;;;18.04;61.96
55538;BME280;41383;51.418;7.286;2023-05-15T09:35:37;99597.69;;;18.14;61.42
55538;BME280;41383;51.418;7.286;2023-05-15T09:38:07;99600.50;;;18.31;61.95
55538;BME280;41383;51.418;7.286;2023-05-15T09:40:33;99602.47;;;18.22;61.38
55538;BME280;41383;51.418;7.286;2023-05-15T09:42:58;99597.91;;;18.26;61.22
55538;BME280;41383;51.418;7.286;2023-05-15T09:45:24;99600.03;;;18.29;60.79
55538;BME280;41383;51.418;7.286;2023-05-15T09:47:51;99603.78;;;18.34;60.96
55538;BME280;41383;51.418;7.286;2023-05-15T09:50:25;99599.78;;;18.08;60.64
55538;BME280;41383;51.418;7.286;2023-05-15T09:52:58;99604.50;;;18.07;60.51
55538;BME280;41383;51.418;7.286;2023-05-15T09:55:23;99605.63;;;18.15;61.26
55538;BME280;41383;51.418;7.286;2023-05-15T09:58:08;99600.34;;;18.28;60.28
55538;BME280;41383;51.418;7.286;2023-05-15T10:00:35;99607.31;;;18.25;60.07
55538;BME280;41383;51.418;7.286;2023-05-15T10:03:01;99598.41;;;18.28;59.90
55538;BME280;41383;51.418;7.286;2023-05-15T10:05:28;99603.44;;;18.26;60.52
55538;BME280;41383;51.418;7.286;2023-05-15T10:07:54;99594.50;;;18.29;59.28
55538;BME280;41383;51.418;7.286;2023-05-15T10:10:23;99600.72;;;18.44;59.57
55538;BME280;41383;51.418;7.286;2023-05-15T10:12:52;99590.28;;;18.41;59.74
55538;BME280;41383;51.418;7.286;2023-05-15T10:15:19;99589.84;;;18.57;60.18
55538;BME280;41383;51.418;7.286;2023-05-15T10:17:49;99591.47;;;18.58;59.68
55538;BME280;41383;51.418;7.286;2023-05-15T10:20:16;99585.94;;;18.84;59.25
55538;BME280;41383;51.418;7.286;2023-05-15T10:22:48;99581.22;;;18.94;57.94
55538;BME280;41383;51.418;7.286;2023-05-15T10:25:20;99586.59;;;19.08;58.42
55538;BME280;41383;51.418;7.286;2023-05-15T10:27:49;99582.38;;;19.19;57.99
55538;BME280;41383;51.418;7.286;2023-05-15T10:30:15;99587.38;;;19.35;57.43
55538;BME280;41383;51.418;7.286;2023-05-15T10:32:44;99587.69;;;19.42;56.22
55538;BME280;41383;51.418;7.286;2023-05-15T10:35:10;99585.44;;;19.35;55.98
55538;BME280;41383;51.418;7.286;2023-05-15T10:37:37;99573.38;;;19.40;54.84
55538;BME280;41383;51.418;7.286;2023-05-15T10:40:08;99578.66;;;19.63;55.76
55538;BME280;41383;51.418;7.286;2023-05-15T10:42:35;99567.25;;;19.74;55.18
55538;BME280;41383;51.418;7.286;2023-05-15T10:45:01;99571.72;;;19.87;54.96
55538;BME280;41383;51.418;7.286;2023-05-15T10:47:28;99571.53;;;20.01;53.72
55538;BME280;41383;51.418;7.286;2023-05-15T10:49:54;99570.50;;;20.15;53.50
55538;BME280;41383;51.418;7.286;2023-05-15T10:52:20;99557.34;;;20.03;53.12
55538;BME280;41383;51.418;7.286;2023-05-15T10:54:46;99564.13;;;20.14;53.53
55538;BME280;41383;51.418;7.286;2023-05-15T10:57:13;99550.50;;;20.09;53.02
55538;BME280;41383;51.418;7.286;2023-05-15T10:59:39;99553.19;;;20.18;52.62
55538;BME280;41383;51.418;7.286;2023-05-15T11:02:24;99547.88;;;20.34;52.06
55538;BME280;41383;51.418;7.286;2023-05-15T11:04:58;99551.69;;;20.51;51.75
55538;BME280;41383;51.418;7.286;2023-05-15T11:07:24;99557.22;;;20.51;50.39
55538;BME280;41383;51.418;7.286;2023-05-15T11:09:51;99547.91;;;20.56;50.70
55538;BME280;41383;51.418;7.286;2023-05-15T11:12:17;99547.50;;;20.66;50.50
55538;BME280;41383;51.418;7.286;2023-05-15T11:17:22;99546.94;;;20.73;48.92
55538;BME280;41383;51.418;7.286;2023-05-15T11:22:25;99543.09;;;20.65;48.30
55538;BME280;41383;51.418;7.286;2023-05-15T11:24:59;99535.38;;;20.71;48.89
55538;BME280;41383;51.418;7.286;2023-05-15T11:32:43;99529.00;;;20.92;46.68
55538;BME280;41383;51.418;7.286;2023-05-15T11:35:10;99536.59;;;20.82;47.42
55538;BME280;41383;51.418;7.286;2023-05-15T11:37:40;99539.56;;;20.98;47.06
55538;BME280;41383;51.418;7.286;2023-05-15T11:40:06;99536.97;;;21.15;45.45
55538;BME280;41383;51.418;7.286;2023-05-15T11:42:33;99535.47;;;21.17;45.52
55538;BME280;41383;51.418;7.286;2023-05-15T11:44:58;99532.16;;;21.37;45.25
55538;BME280;41383;51.418;7.286;2023-05-15T11:47:24;99523.38;;;21.34;44.93
55538;BME280;41383;51.418;7.286;2023-05-15T11:49:49;99523.94;;;21.28;45.38
55538;BME280;41383;51.418;7.286;2023-05-15T11:52:16;99517.38;;;21.45;45.93
55538;BME280;41383;51.418;7.286;2023-05-15T11:54:42;99511.38;;;21.68;46.50
55538;BME280;41383;51.418;7.286;2023-05-15T11:57:07;99504.66;;;21.81;45.21
55538;BME280;41383;51.418;7.286;2023-05-15T11:59:32;99499.81;;;22.03;45.38
55538;BME280;41383;51.418;7.286;2023-05-15T12:01:58;99500.84;;;21.99;45.13
55538;BME280;41383;51.418;7.286;2023-05-15T12:04:23;99498.19;;;22.15;45.22
55538;BME280;41383;51.418;7.286;2023-05-15T12:06:48;99499.84;;;21.66;46.28
55538;BME280;41383;51.418;7.286;2023-05-15T12:09:17;99503.75;;;21.77;46.28
55538;BME280;41383;51.418;7.286;2023-05-15T12:11:52;99502.59;;;22.03;44.97
55538;BME280;41383;51.418;7.286;2023-05-15T12:14:25;99487.66;;;22.08;45.44
55538;BME280;41383;51.418;7.286;2023-05-15T12:16:51;99495.34;;;22.27;44.86
55538;BME280;41383;51.418;7.286;2023-05-15T12:19:17;99484.53;;;22.10;45.18
55538;BME280;41383;51.418;7.286;2023-05-15T12:21:45;99503.63;;;21.61;46.56
55538;BME280;41383;51.418;7.286;2023-05-15T12:24:10;99504.34;;;21.45;46.13
55538;BME280;41383;51.418;7.286;2023-05-15T12:26:37;99506.06;;;21.38;45.24
55538;BME280;41383;51.418;7.286;2023-05-15T12:29:04;99494.72;;;21.30;46.38
55538;BME280;41383;51.418;7.286;2023-05-15T12:31:29;99488.84;;;21.44;46.24
55538;BME280;41383;51.418;7.286;2023-05-15T12:33:55;99490.47;;;21.96;44.18
55538;BME280;41383;51.418;7.286;2023-05-15T12:36:21;99485.16;;;22.32;44.15
55538;BME280;41383;51.418;7.286;2023-05-15T12:38:47;99483.31;;;22.36;42.86
55538;BME280;41383;51.418;7.286;2023-05-15T12:41:12;99485.50;;;22.43;42.60
55538;BME280;41383;51.418;7.286;2023-05-15T12:43:38;99486.56;;;22.25;39.42
55538;BME280;41383;51.418;7.286;2023-05-15T12:46:03;99477.28;;;21.80;42.07
55538;BME280;41383;51.418;7.286;2023-05-15T12:48:29;99490.56;;;21.49;41.57
55538;BME280;41383;51.418;7.286;2023-05-15T12:51:03;99487.25;;;21.56;40.36
55538;BME280;41383;51.418;7.286;2023-05-15T12:53:30;99485.38;;;21.85;40.36
55538;BME280;41383;51.418;7.286;2023-05-15T12:55:56;99491.47;;;21.78;40.96
55538;BME280;41383;51.418;7.286;2023-05-15T12:58:21;99481.81;;;21.60;40.95
55538;BME280;41383;51.418;7.286;2023-05-15T13:03:13;99479.03;;;21.72;40.69
55538;BME280;41383;51.418;7.286;2023-05-15T13:05:41;99488.94;;;21.61;40.30
55538;BME280;41383;51.418;7.286;2023-05-15T13:08:07;99495.50;;;21.18;40.75
55538;BME280;41383;51.418;7.286;2023-05-15T13:10:33;99491.69;;;20.89;41.60
55538;BME280;41383;51.418;7.286;2023-05-15T13:12:59;99491.97;;;21.55;40.57
55538;BME280;41383;51.418;7.286;2023-05-15T13:15:28;99480.41;;;21.66;40.55
55538;BME280;41383;51.418;7.286;2023-05-15T13:18:06;99480.97;;;21.46;40.64
55538;BME280;41383;51.418;7.286;2023-05-15T13:20:40;99481.56;;;21.65;40.85
55538;BME280;41383;51.418;7.286;2023-05-15T13:23:06;99483.13;;;22.16;39.89
55538;BME280;41383;51.418;7.286;2023-05-15T13:25:32;99473.91;;;21.99;40.91
55538;BME280;41383;51.418;7.286;2023-05-15T13:27:59;99483.06;;;21.87;40.20